createdAt,value
2022-10-18T00:01:49.887Z,101998.00
2022-10-18T00:04:33.309Z,102001.66
2022-10-18T00:07:16.697Z,102002.03
2022-10-18T00:10:00.147Z,101991.84
2022-10-18T00:12:43.677Z,102003.66
2022-10-18T00:15:27.571Z,102000.03
2022-10-18T00:18:10.984Z,101999.84
2022-10-18T00:21:06.857Z,101999.50
2022-10-18T00:23:52.294Z,102004.13
2022-10-18T00:26:35.736Z,102015.38
2022-10-18T00:29:19.198Z,102005.41
2022-10-18T00:32:02.583Z,102004.78
2022-10-18T00:34:46.042Z,102002.78
2022-10-18T00:37:29.744Z,102012.88
2022-10-18T00:40:13.264Z,102018.53
2022-10-18T00:42:56.636Z,102016.81
2022-10-18T00:45:40.014Z,102021.88
2022-10-18T00:48:24.197Z,102016.81
2022-10-18T00:51:07.817Z,102016.47
2022-10-18T00:53:51.896Z,102019.00
2022-10-18T00:56:36.014Z,102013.69
2022-10-18T00:59:20.930Z,102019.13
2022-10-18T01:02:06.807Z,102021.06
2022-10-18T01:04:50.328Z,102021.63
2022-10-18T01:08:00.770Z,102017.47
2022-10-18T01:11:32.016Z,102022.00
2022-10-18T01:14:39.327Z,102019.66
2022-10-18T01:17:46.682Z,102028.06
2022-10-18T01:21:21.437Z,102022.88
2022-10-18T01:24:28.934Z,102036.44
2022-10-18T01:27:27.909Z,102023.91
2022-10-18T01:30:32.827Z,102031.41
2022-10-18T01:33:23.211Z,102027.47
2022-10-18T01:36:32.565Z,102017.94
2022-10-18T01:39:31.416Z,102012.25
2022-10-18T01:42:20.703Z,102008.44
2022-10-18T01:45:08.007Z,102005.03
2022-10-18T01:47:54.360Z,102003.78
2022-10-18T01:50:37.752Z,102007.59
2022-10-18T01:53:32.586Z,102005.13
2022-10-18T01:56:26.939Z,102007.00
2022-10-18T01:59:50.180Z,102020.59
2022-10-18T02:02:57.089Z,102013.63
2022-10-18T02:05:58.662Z,102014.47
2022-10-18T02:09:00.750Z,102014.53
2022-10-18T02:11:51.323Z,102006.72
2022-10-18T02:14:36.716Z,102006.38
2022-10-18T02:17:25.407Z,102012.22
2022-10-18T02:20:11.560Z,101997.59
2022-10-18T02:22:58.987Z,102013.47
2022-10-18T02:25:42.932Z,102018.00
2022-10-18T02:28:27.094Z,102021.16
2022-10-18T02:31:28.599Z,102016.91
2022-10-18T02:34:23.981Z,102017.88
2022-10-18T02:37:10.857Z,102024.38
2022-10-18T02:39:54.260Z,102020.72
2022-10-18T02:42:49.862Z,102024.91
2022-10-18T02:45:33.699Z,102024.50
2022-10-18T02:48:17.074Z,102031.47
2022-10-18T02:51:00.893Z,102026.88
2022-10-18T02:53:44.250Z,102039.22
2022-10-18T02:56:27.838Z,102038.38
2022-10-18T02:59:11.955Z,102047.13
2022-10-18T03:01:55.360Z,102039.63
2022-10-18T03:04:38.725Z,102038.09
2022-10-18T03:07:22.219Z,102039.06
2022-10-18T03:10:06.395Z,102040.44
2022-10-18T03:12:49.934Z,102044.72
2022-10-18T03:15:33.292Z,102042.41
2022-10-18T03:18:16.667Z,102052.63
2022-10-18T03:21:05.609Z,102052.88
2022-10-18T03:23:48.973Z,102056.09
2022-10-18T03:26:32.769Z,102054.19
2022-10-18T03:29:16.190Z,102049.03
2022-10-18T03:31:59.576Z,102055.34
2022-10-18T03:34:42.973Z,102044.38
2022-10-18T03:37:26.411Z,102044.44
2022-10-18T03:40:10.078Z,102054.44
2022-10-18T03:42:53.441Z,102051.19
2022-10-18T03:45:36.817Z,102052.47
2022-10-18T03:48:20.205Z,102054.03
2022-10-18T03:51:03.654Z,102048.25
2022-10-18T03:53:47.026Z,102047.97
2022-10-18T03:56:30.433Z,102054.72
2022-10-18T03:59:13.933Z,102051.03
2022-10-18T04:01:57.346Z,102057.94
2022-10-18T04:04:40.766Z,102057.97
2022-10-18T04:07:24.234Z,102066.13
2022-10-18T04:10:08.206Z,102063.19
2022-10-18T04:12:51.662Z,102067.44
2022-10-18T04:15:35.050Z,102068.09
2022-10-18T04:18:18.403Z,102063.31
2022-10-18T04:21:01.836Z,102069.38
2022-10-18T04:23:48.847Z,102064.25
2022-10-18T04:26:32.204Z,102069.81
2022-10-18T04:29:15.567Z,102064.53
2022-10-18T04:31:58.965Z,102065.84
2022-10-18T04:37:26.617Z,102054.53
2022-10-18T04:40:10.594Z,102048.91
2022-10-18T04:42:53.955Z,102056.94
2022-10-18T04:45:37.367Z,102063.41
2022-10-18T04:48:20.820Z,102063.84
2022-10-18T04:51:04.189Z,102063.41
2022-10-18T04:53:47.661Z,102051.22
2022-10-18T04:56:31.045Z,102054.22
2022-10-18T04:59:14.439Z,102060.50
2022-10-18T05:01:57.893Z,102058.59
2022-10-18T05:04:41.322Z,102063.72
2022-10-18T05:07:24.689Z,102061.53
2022-10-18T05:10:08.688Z,102062.16
2022-10-18T05:12:52.092Z,102055.06
2022-10-18T05:15:35.483Z,102047.81
2022-10-18T05:18:18.923Z,102045.09
2022-10-18T05:21:02.299Z,102037.28
2022-10-18T05:23:45.729Z,102034.31
2022-10-18T05:26:29.154Z,102042.59
2022-10-18T05:29:12.690Z,102045.81
2022-10-18T05:31:56.153Z,102039.69
2022-10-18T05:34:39.576Z,102046.81
2022-10-18T05:37:27.556Z,102044.19
2022-10-18T05:40:12.245Z,102044.91
2022-10-18T05:42:55.611Z,102035.78
2022-10-18T05:45:38.992Z,102043.03
2022-10-18T05:48:22.526Z,102045.78
2022-10-18T05:51:06.037Z,102052.00
2022-10-18T05:53:49.416Z,102052.00
2022-10-18T05:56:32.994Z,102053.00
2022-10-18T05:59:16.370Z,102068.19
2022-10-18T06:01:59.779Z,102063.31
2022-10-18T06:04:43.179Z,102074.19
2022-10-18T06:07:26.531Z,102069.59
2022-10-18T06:10:10.194Z,102069.47
2022-10-18T06:12:53.519Z,102059.47
2022-10-18T06:15:36.968Z,102049.69
2022-10-18T06:18:20.347Z,102051.97
2022-10-18T06:21:04.493Z,102058.78
2022-10-18T06:23:53.727Z,102052.72
2022-10-18T06:26:37.084Z,102043.84
2022-10-18T06:29:20.538Z,102038.19
2022-10-18T06:32:05.803Z,102029.75
2022-10-18T06:34:49.217Z,102044.13
2022-10-18T06:37:32.950Z,102054.28
2022-10-18T06:40:16.458Z,102054.06
2022-10-18T06:43:19.604Z,102052.81
2022-10-18T06:46:08.175Z,102043.72
2022-10-18T06:48:51.726Z,102039.25
2022-10-18T06:51:35.348Z,102049.28
2022-10-18T06:54:19.200Z,102049.72
2022-10-18T06:57:03.236Z,102052.97
2022-10-18T06:59:47.206Z,102056.84
2022-10-18T07:02:30.817Z,102052.25
2022-10-18T07:05:14.453Z,102046.97
2022-10-18T07:07:58.458Z,102048.22
2022-10-18T07:10:41.928Z,102052.47
2022-10-18T07:13:32.490Z,102060.06
2022-10-18T07:16:19.412Z,102062.47
2022-10-18T07:19:03.054Z,102071.34
2022-10-18T07:21:46.429Z,102076.53
2022-10-18T07:24:29.834Z,102071.22
2022-10-18T07:27:13.400Z,102079.41
2022-10-18T07:29:56.739Z,102079.00
2022-10-18T07:32:40.110Z,102092.94
2022-10-18T07:35:23.527Z,102096.63
2022-10-18T07:38:06.905Z,102104.09
2022-10-18T07:40:58.515Z,102107.81
2022-10-18T07:43:45.857Z,102104.41
2022-10-18T07:46:29.295Z,102112.78
2022-10-18T07:49:12.675Z,102123.38
2022-10-18T07:51:56.018Z,102122.16
2022-10-18T07:54:39.424Z,102122.72
2022-10-18T07:57:23.500Z,102122.81
2022-10-18T08:00:09.147Z,102122.50
2022-10-18T08:02:59.433Z,102112.56
2022-10-18T08:05:43.097Z,102110.25
2022-10-18T08:08:27.825Z,102108.88
2022-10-18T08:11:24.415Z,102109.25
2022-10-18T08:14:07.793Z,102106.06
2022-10-18T08:16:51.229Z,102099.56
2022-10-18T08:19:34.579Z,102103.72
2022-10-18T08:22:18.108Z,102098.97
2022-10-18T08:25:01.496Z,102096.13
2022-10-18T08:27:45.105Z,102089.94
2022-10-18T08:30:28.563Z,102092.00
2022-10-18T08:33:12.221Z,102101.44
2022-10-18T08:36:01.743Z,102097.06
2022-10-18T08:38:45.230Z,102096.38
2022-10-18T08:41:37.825Z,102099.41
2022-10-18T08:44:30.604Z,102101.16
2022-10-18T08:47:20.716Z,102101.09
2022-10-18T08:50:16.282Z,102105.22
2022-10-18T08:53:20.811Z,102098.38
2022-10-18T08:56:21.568Z,102098.78
2022-10-18T08:59:11.383Z,102098.44
2022-10-18T09:02:40.292Z,102100.59
2022-10-18T09:06:04.352Z,102102.44
2022-10-18T09:09:31.891Z,102100.03
2022-10-18T09:12:47.091Z,102100.34
2022-10-18T09:15:49.529Z,102090.06
2022-10-18T09:19:20.830Z,102100.97
2022-10-18T09:22:18.179Z,102095.56
2022-10-18T09:25:26.180Z,102104.03
2022-10-18T09:28:44.616Z,102089.09
2022-10-18T09:32:25.560Z,102094.41
2022-10-18T09:35:47.853Z,102100.44
2022-10-18T09:38:55.134Z,102099.19
2022-10-18T09:42:00.282Z,102103.28
2022-10-18T09:45:02.157Z,102104.50
2022-10-18T09:48:08.671Z,102097.69
2022-10-18T09:51:23.559Z,102102.69
2022-10-18T09:54:30.535Z,102098.75
2022-10-18T09:57:35.291Z,102093.84
2022-10-18T10:00:28.094Z,102107.84
2022-10-18T10:03:14.772Z,102103.47
2022-10-18T10:06:14.849Z,102098.53
2022-10-18T10:09:05.668Z,102105.94
2022-10-18T10:11:51.960Z,102112.09
2022-10-18T10:14:44.554Z,102108.06
2022-10-18T10:17:33.462Z,102097.19
2022-10-18T10:20:45.662Z,102104.63
2022-10-18T10:23:51.166Z,102115.78
2022-10-18T10:26:37.895Z,102111.91
2022-10-18T10:29:46.145Z,102108.88
2022-10-18T10:32:44.988Z,102106.22
2022-10-18T10:38:35.629Z,102096.34
2022-10-18T10:41:24.286Z,102094.75
2022-10-18T10:44:21.478Z,102088.84
2022-10-18T10:47:06.324Z,102084.31
2022-10-18T10:49:49.809Z,102080.28
2022-10-18T10:52:33.333Z,102078.09
2022-10-18T10:55:35.438Z,102083.34
2022-10-18T10:58:19.481Z,102070.97
2022-10-18T11:01:21.537Z,102060.63
2022-10-18T11:04:28.513Z,102057.31
2022-10-18T11:07:36.478Z,102059.38
2022-10-18T11:10:26.334Z,102053.63
2022-10-18T11:13:50.044Z,102037.97
2022-10-18T11:16:56.657Z,102044.31
2022-10-18T11:20:22.967Z,102047.66
2022-10-18T11:23:11.251Z,102039.03
2022-10-18T11:26:10.738Z,102044.41
2022-10-18T11:29:03.276Z,102044.38
2022-10-18T11:32:10.957Z,102041.19
2022-10-18T11:35:08.472Z,102044.38
2022-10-18T11:38:08.058Z,102043.03
2022-10-18T11:41:19.603Z,102045.66
2022-10-18T11:44:28.680Z,102048.81
2022-10-18T11:48:06.887Z,102042.66
2022-10-18T11:52:06.705Z,102029.91
2022-10-18T11:55:20.609Z,102033.84
2022-10-18T11:58:34.963Z,102038.81
2022-10-18T12:01:53.662Z,102037.25
2022-10-18T12:04:58.505Z,102039.56
2022-10-18T12:08:14.088Z,102028.41
2022-10-18T12:11:06.905Z,102027.31
2022-10-18T12:14:10.719Z,102032.13
2022-10-18T12:17:38.986Z,102032.88
2022-10-18T12:20:20.756Z,102025.72
2022-10-18T12:23:12.602Z,102018.81
2022-10-18T12:26:03.549Z,102019.19
2022-10-18T12:29:07.502Z,102016.38
2022-10-18T12:32:16.547Z,102019.91
2022-10-18T12:35:18.509Z,102021.94
2022-10-18T12:38:07.660Z,102018.41
2022-10-18T12:40:54.670Z,102022.50
2022-10-18T12:43:38.134Z,102021.09
2022-10-18T12:46:21.799Z,102012.44
2022-10-18T12:49:06.091Z,102011.06
2022-10-18T12:52:25.458Z,102009.84
2022-10-18T12:55:17.629Z,102005.03
2022-10-18T12:58:05.867Z,102005.22
2022-10-18T13:00:49.252Z,102003.53
2022-10-18T13:03:51.416Z,102002.78
2022-10-18T13:06:57.764Z,102016.81
2022-10-18T13:10:03.890Z,102003.25
2022-10-18T13:13:39.278Z,102013.69
2022-10-18T13:16:23.293Z,101999.94
2022-10-18T13:19:39.266Z,102010.72
2022-10-18T13:23:09.494Z,102010.69
2022-10-18T13:26:23.544Z,102011.38
2022-10-18T13:29:47.551Z,102013.44
2022-10-18T13:32:48.658Z,102014.44
2022-10-18T13:35:56.402Z,102020.44
2022-10-18T13:38:57.837Z,102015.09
2022-10-18T13:41:47.483Z,102010.59
2022-10-18T13:44:39.979Z,102003.84
2022-10-18T13:47:38.050Z,102013.97
2022-10-18T13:50:36.360Z,102005.47
2022-10-18T13:53:22.598Z,102003.53
2022-10-18T13:56:59.653Z,102009.06
2022-10-18T14:00:38.178Z,102017.06
2022-10-18T14:03:56.803Z,102011.16
2022-10-18T14:06:48.414Z,102016.66
2022-10-18T14:09:50.991Z,102009.38
2022-10-18T14:12:44.204Z,102015.59
2022-10-18T14:15:35.711Z,102022.72
2022-10-18T14:18:33.043Z,102026.84
2022-10-18T14:21:31.072Z,102028.91
2022-10-18T14:24:22.475Z,102020.78
2022-10-18T14:27:14.737Z,102028.91
2022-10-18T14:30:30.744Z,102034.66
2022-10-18T14:33:27.950Z,102049.47
2022-10-18T14:36:20.365Z,102043.50
2022-10-18T14:39:07.650Z,102045.50
2022-10-18T14:41:57.424Z,102046.63
2022-10-18T14:44:40.776Z,102048.63
2022-10-18T14:47:27.359Z,102044.09
2022-10-18T14:50:30.553Z,102039.47
2022-10-18T14:53:21.064Z,102051.41
2022-10-18T14:56:07.484Z,102051.56
2022-10-18T14:58:52.532Z,102043.47
2022-10-18T15:01:36.488Z,102048.25
2022-10-18T15:04:24.969Z,102038.03
2022-10-18T15:07:19.976Z,102040.13
2022-10-18T15:10:06.663Z,102031.72
2022-10-18T15:13:08.827Z,102035.63
2022-10-18T15:15:55.445Z,102036.28
2022-10-18T15:18:38.807Z,102033.06
2022-10-18T15:21:24.738Z,102033.03
2022-10-18T15:24:31.120Z,102030.19
2022-10-18T15:27:35.395Z,102037.34
2022-10-18T15:30:39.364Z,102040.00
2022-10-18T15:33:25.937Z,102039.78
2022-10-18T15:36:27.699Z,102042.66
2022-10-18T15:39:31.203Z,102040.47
2022-10-18T15:42:37.755Z,102046.03
2022-10-18T15:45:23.979Z,102043.22
2022-10-18T15:48:09.306Z,102039.91
2022-10-18T15:51:06.574Z,102043.16
2022-10-18T15:53:50.019Z,102044.19
2022-10-18T15:56:36.684Z,102042.56
2022-10-18T15:59:29.719Z,102050.00
2022-10-18T16:02:14.838Z,102047.28
2022-10-18T16:05:02.900Z,102057.75
2022-10-18T16:07:52.251Z,102058.84
2022-10-18T16:10:35.803Z,102055.44
2022-10-18T16:13:19.731Z,102060.94
2022-10-18T16:16:03.242Z,102057.47
2022-10-18T16:18:47.058Z,102049.13
2022-10-18T16:21:39.956Z,102042.00
2022-10-18T16:24:23.884Z,102052.31
2022-10-18T16:27:07.284Z,102052.25
2022-10-18T16:29:50.705Z,102064.53
2022-10-18T16:32:34.419Z,102060.16
2022-10-18T16:35:17.927Z,102063.13
2022-10-18T16:38:01.968Z,102071.16
2022-10-18T16:40:45.354Z,102071.03
2022-10-18T16:43:28.919Z,102078.88
2022-10-18T16:46:22.089Z,102071.16
2022-10-18T16:49:06.229Z,102077.34
2022-10-18T16:51:54.225Z,102078.06
2022-10-18T16:54:37.730Z,102083.13
2022-10-18T16:57:21.131Z,102081.13
2022-10-18T17:00:05.038Z,102077.88
2022-10-18T17:02:49.988Z,102076.94
2022-10-18T17:05:33.447Z,102085.19
2022-10-18T17:08:28.290Z,102081.84
2022-10-18T17:11:14.629Z,102087.66
2022-10-18T17:13:58.208Z,102087.31
2022-10-18T17:16:44.517Z,102084.34
2022-10-18T17:19:30.433Z,102088.88
2022-10-18T17:22:13.865Z,102091.16
2022-10-18T17:24:57.276Z,102086.03
2022-10-18T17:27:41.057Z,102095.69
2022-10-18T17:30:24.495Z,102091.19
2022-10-18T17:33:08.762Z,102099.13
2022-10-18T17:35:52.305Z,102101.88
2022-10-18T17:38:35.754Z,102098.19
2022-10-18T17:41:19.277Z,102090.25
2022-10-18T17:44:04.695Z,102094.31
2022-10-18T17:46:48.212Z,102096.75
2022-10-18T17:49:31.764Z,102104.97
2022-10-18T17:52:15.179Z,102106.59
2022-10-18T17:54:58.625Z,102101.53
2022-10-18T17:57:43.760Z,102104.31
2022-10-18T18:00:28.543Z,102115.31
2022-10-18T18:03:12.311Z,102115.00
2022-10-18T18:05:56.144Z,102109.28
2022-10-18T18:08:39.703Z,102108.78
2022-10-18T18:11:23.178Z,102109.25
2022-10-18T18:14:09.133Z,102105.56
2022-10-18T18:16:52.612Z,102109.75
2022-10-18T18:19:36.519Z,102106.34
2022-10-18T18:22:19.944Z,102112.72
2022-10-18T18:25:04.532Z,102107.78
2022-10-18T18:27:47.920Z,102115.50
2022-10-18T18:30:31.299Z,102117.63
2022-10-18T18:33:14.989Z,102112.88
2022-10-18T18:35:58.946Z,102122.00
2022-10-18T18:38:43.391Z,102113.25
2022-10-18T18:41:28.432Z,102107.06
2022-10-18T18:44:11.811Z,102118.72
2022-10-18T18:46:55.564Z,102116.50
2022-10-18T18:49:39.081Z,102117.25
2022-10-18T18:52:22.616Z,102120.31
2022-10-18T18:55:06.697Z,102112.91
2022-10-18T18:57:50.087Z,102120.69
2022-10-18T19:00:33.660Z,102118.44
2022-10-18T19:03:17.127Z,102121.00
2022-10-18T19:06:07.401Z,102119.81
2022-10-18T19:09:00.521Z,102121.56
2022-10-18T19:11:44.301Z,102116.19
2022-10-18T19:14:29.364Z,102119.47
2022-10-18T19:17:13.244Z,102124.03
2022-10-18T19:19:58.858Z,102120.91
2022-10-18T19:22:42.545Z,102130.13
2022-10-18T19:25:27.076Z,102126.41
2022-10-18T19:28:10.655Z,102128.97
2022-10-18T19:30:56.118Z,102135.97
2022-10-18T19:33:48.547Z,102135.81
2022-10-18T19:36:41.835Z,102133.13
2022-10-18T19:39:30.875Z,102134.66
2022-10-18T19:42:18.587Z,102138.50
2022-10-18T19:45:06.414Z,102139.50
2022-10-18T19:47:50.042Z,102150.16
2022-10-18T19:50:35.330Z,102137.53
2022-10-18T19:53:18.988Z,102139.84
2022-10-18T19:56:05.274Z,102143.19
2022-10-18T19:58:49.438Z,102146.63
2022-10-18T20:01:33.046Z,102143.59
2022-10-18T20:04:17.516Z,102151.22
2022-10-18T20:07:02.802Z,102156.31
2022-10-18T20:09:48.032Z,102165.28
2022-10-18T20:12:31.792Z,102164.38
2022-10-18T20:15:15.809Z,102166.19
2022-10-18T20:18:05.271Z,102167.78
2022-10-18T20:20:49.820Z,102173.53
2022-10-18T20:23:36.329Z,102174.00
2022-10-18T20:26:20.970Z,102160.13
2022-10-18T20:29:05.339Z,102168.94
2022-10-18T20:31:48.796Z,102180.38
2022-10-18T20:34:32.161Z,102176.66
2022-10-18T20:37:15.540Z,102177.16
2022-10-18T20:40:00.213Z,102179.19
2022-10-18T20:42:43.750Z,102180.81
2022-10-18T20:45:27.128Z,102178.06
2022-10-18T20:48:10.500Z,102177.47
2022-10-18T20:50:54.376Z,102177.75
2022-10-18T20:53:38.707Z,102179.91
2022-10-18T20:56:26.689Z,102176.53
2022-10-18T20:59:11.559Z,102183.25
2022-10-18T21:01:54.981Z,102179.47
2022-10-18T21:04:41.413Z,102176.06
2022-10-18T21:07:25.769Z,102183.72
2022-10-18T21:10:09.433Z,102177.44
2022-10-18T21:12:53.491Z,102174.25
2022-10-18T21:15:36.893Z,102170.50
2022-10-18T21:18:27.695Z,102169.78
2022-10-18T21:21:17.779Z,102168.06
2022-10-18T21:24:04.057Z,102161.53
2022-10-18T21:26:51.052Z,102177.06
2022-10-18T21:29:34.666Z,102162.84
2022-10-18T21:32:18.216Z,102176.34
2022-10-18T21:35:01.700Z,102165.03
2022-10-18T21:37:45.088Z,102167.69
2022-10-18T21:40:28.832Z,102162.44
2022-10-18T21:43:12.190Z,102166.44
2022-10-18T21:46:00.343Z,102164.13
2022-10-18T21:48:51.707Z,102161.94
2022-10-18T21:51:35.381Z,102166.72
2022-10-18T21:54:18.941Z,102162.69
2022-10-18T21:57:02.290Z,102177.22
2022-10-18T21:59:45.812Z,102174.19
2022-10-18T22:02:29.207Z,102166.97
2022-10-18T22:05:12.760Z,102167.81
2022-10-18T22:07:56.141Z,102169.50
2022-10-18T22:10:39.550Z,102169.56
2022-10-18T22:13:23.148Z,102167.41
2022-10-18T22:16:08.738Z,102162.69
2022-10-18T22:18:56.559Z,102164.91
2022-10-18T22:21:40.340Z,102162.00
2022-10-18T22:24:23.817Z,102166.09
2022-10-18T22:27:07.328Z,102167.47
2022-10-18T22:29:52.145Z,102159.38
2022-10-18T22:32:35.708Z,102159.97
2022-10-18T22:35:19.069Z,102153.31
2022-10-18T22:38:02.436Z,102151.47
2022-10-18T22:40:45.865Z,102149.28
2022-10-18T22:43:30.000Z,102143.47
2022-10-18T22:46:15.168Z,102152.38
2022-10-18T22:48:58.641Z,102152.31
2022-10-18T22:51:42.046Z,102150.53
2022-10-18T22:54:25.447Z,102146.06
2022-10-18T22:57:08.788Z,102141.81
2022-10-18T22:59:52.283Z,102137.31
2022-10-18T23:02:35.937Z,102140.41
2022-10-18T23:05:19.572Z,102133.19
2022-10-18T23:08:02.927Z,102145.16
2022-10-18T23:10:46.394Z,102127.78
2022-10-18T23:13:29.751Z,102127.31
2022-10-18T23:16:13.888Z,102139.25
2022-10-18T23:18:59.152Z,102139.94
2022-10-18T23:21:42.604Z,102141.78
2022-10-18T23:24:26.032Z,102138.47
2022-10-18T23:27:09.399Z,102145.56
2022-10-18T23:29:52.874Z,102144.97
2022-10-18T23:32:38.281Z,102138.44
2022-10-18T23:35:21.864Z,102137.03
2022-10-18T23:38:05.204Z,102145.00
2022-10-18T23:40:48.595Z,102138.97
2022-10-18T23:43:32.690Z,102142.63
2022-10-18T23:46:18.107Z,102134.31
2022-10-18T23:49:01.693Z,102148.75
2022-10-18T23:51:45.128Z,102143.78
2022-10-18T23:54:28.553Z,102133.53
2022-10-18T23:57:12.488Z,102148.13
2022-10-18T23:59:55.860Z,102140.84
